sensor_id;sensor_type;location;lat;lon;timestamp;pressure;altitude;pressure_sealevel;temperature;humidity
65376;BME280;51976;47.332;9.404;2024-03-22T00:01:46;93469.16;;;8.29;100.00
65376;BME280;51976;47.332;9.404;2024-03-22T00:04:14;93465.41;;;8.30;100.00
65376;BME280;51976;47.332;9.404;2024-03-22T00:06:44;93469.50;;;8.33;100.00
65376;BME280;51976;47.332;9.404;2024-03-22T00:09:10;93472.75;;;8.35;100.00
65376;BME280;51976;47.332;9.404;2024-03-22T00:11:35;93465.41;;;8.30;100.00
65376;BME280;51976;47.332;9.404;2024-03-22T00:14:02;93467.06;;;8.09;100.00
65376;BME280;51976;47.332;9.404;2024-03-22T00:16:27;93469.00;;;8.14;100.00
65376;BME280;51976;47.332;9.404;2024-03-22T00:18:52;93464.63;;;8.08;100.00
65376;BME280;51976;47.332;9.404;2024-03-22T00:21:18;93455.72;;;8.02;100.00
65376;BME280;51976;47.332;9.404;2024-03-22T00:23:45;93461.72;;;8.09;100.00
65376;BME280;51976;47.332;9.404;2024-03-22T00:26:10;93454.72;;;8.08;100.00
65376;BME280;51976;47.332;9.404;2024-03-22T00:28:35;93455.66;;;7.97;100.00
65376;BME280;51976;47.332;9.404;2024-03-22T00:31:01;93456.78;;;8.01;100.00
65376;BME280;51976;47.332;9.404;2024-03-22T00:33:26;93455.47;;;7.82;100.00
65376;BME280;51976;47.332;9.404;2024-03-22T00:35:52;93467.94;;;7.71;100.00
65376;BME280;51976;47.332;9.404;2024-03-22T00:38:17;93458.84;;;7.72;100.00
65376;BME280;51976;47.332;9.404;2024-03-22T00:40:42;93450.69;;;7.62;100.00
65376;BME280;51976;47.332;9.404;2024-03-22T00:43:08;93454.69;;;7.60;100.00
65376;BME280;51976;47.332;9.404;2024-03-22T00:45:33;93457.97;;;7.67;100.00
65376;BME280;51976;47.332;9.404;2024-03-22T00:47:58;93456.16;;;7.72;100.00
65376;BME280;51976;47.332;9.404;2024-03-22T00:50:24;93446.81;;;7.75;100.00
65376;BME280;51976;47.332;9.404;2024-03-22T00:52:52;93435.00;;;7.76;100.00
65376;BME280;51976;47.332;9.404;2024-03-22T00:55:19;93435.19;;;7.69;100.00
65376;BME280;51976;47.332;9.404;2024-03-22T00:57:45;93433.19;;;7.38;100.00
65376;BME280;51976;47.332;9.404;2024-03-22T01:00:10;93437.78;;;7.42;100.00
65376;BME280;51976;47.332;9.404;2024-03-22T01:02:36;93433.88;;;7.50;100.00
65376;BME280;51976;47.332;9.404;2024-03-22T01:05:02;93432.09;;;7.56;100.00
65376;BME280;51976;47.332;9.404;2024-03-22T01:07:27;93431.25;;;7.55;100.00
65376;BME280;51976;47.332;9.404;2024-03-22T01:09:53;93426.03;;;7.65;100.00
65376;BME280;51976;47.332;9.404;2024-03-22T01:12:18;93425.34;;;7.53;100.00
65376;BME280;51976;47.332;9.404;2024-03-22T01:14:43;93417.72;;;7.45;100.00
65376;BME280;51976;47.332;9.404;2024-03-22T01:17:09;93417.66;;;7.40;100.00
65376;BME280;51976;47.332;9.404;2024-03-22T01:19:34;93421.09;;;7.57;100.00
65376;BME280;51976;47.332;9.404;2024-03-22T01:22:00;93421.59;;;7.54;100.00
65376;BME280;51976;47.332;9.404;2024-03-22T01:24:25;93425.72;;;7.62;100.00
65376;BME280;51976;47.332;9.404;2024-03-22T01:26:51;93414.59;;;7.53;100.00
65376;BME280;51976;47.332;9.404;2024-03-22T01:29:16;93415.66;;;7.52;100.00
65376;BME280;51976;47.332;9.404;2024-03-22T01:31:41;93412.41;;;7.50;100.00
65376;BME280;51976;47.332;9.404;2024-03-22T01:34:07;93409.09;;;7.43;100.00
65376;BME280;51976;47.332;9.404;2024-03-22T01:36:32;93412.25;;;7.35;100.00
65376;BME280;51976;47.332;9.404;2024-03-22T01:38:58;93413.34;;;7.39;100.00
65376;BME280;51976;47.332;9.404;2024-03-22T01:41:23;93406.41;;;7.43;100.00
65376;BME280;51976;47.332;9.404;2024-03-22T01:43:49;93400.31;;;7.26;100.00
65376;BME280;51976;47.332;9.404;2024-03-22T01:46:14;93402.91;;;7.21;100.00
65376;BME280;51976;47.332;9.404;2024-03-22T01:48:40;93400.31;;;7.26;100.00
65376;BME280;51976;47.332;9.404;2024-03-22T01:51:05;93404.19;;;7.35;100.00
65376;BME280;51976;47.332;9.404;2024-03-22T01:53:32;93394.28;;;7.35;100.00
65376;BME280;51976;47.332;9.404;2024-03-22T01:55:58;93391.13;;;7.43;100.00
65376;BME280;51976;47.332;9.404;2024-03-22T01:58:24;93387.28;;;7.34;100.00
65376;BME280;51976;47.332;9.404;2024-03-22T02:00:49;93384.72;;;7.23;100.00
65376;BME280;51976;47.332;9.404;2024-03-22T02:03:15;93382.44;;;7.14;100.00
65376;BME280;51976;47.332;9.404;2024-03-22T02:05:40;93384.47;;;7.24;100.00
65376;BME280;51976;47.332;9.404;2024-03-22T02:08:06;93381.28;;;7.27;100.00
65376;BME280;51976;47.332;9.404;2024-03-22T02:10:31;93374.38;;;6.93;100.00
65376;BME280;51976;47.332;9.404;2024-03-22T02:12:57;93379.91;;;6.86;100.00
65376;BME280;51976;47.332;9.404;2024-03-22T02:15:22;93381.47;;;6.82;100.00
65376;BME280;51976;47.332;9.404;2024-03-22T02:17:48;93384.94;;;6.99;100.00
65376;BME280;51976;47.332;9.404;2024-03-22T02:20:13;93385.81;;;7.05;100.00
65376;BME280;51976;47.332;9.404;2024-03-22T02:22:38;93378.03;;;7.03;100.00
65376;BME280;51976;47.332;9.404;2024-03-22T02:25:04;93377.94;;;6.98;100.00
65376;BME280;51976;47.332;9.404;2024-03-22T02:27:29;93373.72;;;7.02;100.00
65376;BME280;51976;47.332;9.404;2024-03-22T02:29:55;93374.38;;;7.09;100.00
65376;BME280;51976;47.332;9.404;2024-03-22T02:32:20;93364.34;;;6.83;100.00
65376;BME280;51976;47.332;9.404;2024-03-22T02:34:46;93364.97;;;6.90;100.00
65376;BME280;51976;47.332;9.404;2024-03-22T02:37:11;93362.28;;;6.90;100.00
65376;BME280;51976;47.332;9.404;2024-03-22T02:39:37;93365.59;;;6.97;100.00
65376;BME280;51976;47.332;9.404;2024-03-22T02:42:02;93352.13;;;6.92;100.00
65376;BME280;51976;47.332;9.404;2024-03-22T02:44:27;93352.13;;;6.92;100.00
65376;BME280;51976;47.332;9.404;2024-03-22T02:46:53;93348.06;;;6.90;100.00
65376;BME280;51976;47.332;9.404;2024-03-22T02:49:18;93342.63;;;6.85;100.00
65376;BME280;51976;47.332;9.404;2024-03-22T02:51:43;93346.19;;;6.90;100.00
65376;BME280;51976;47.332;9.404;2024-03-22T02:54:09;93344.59;;;6.89;100.00
65376;BME280;51976;47.332;9.404;2024-03-22T02:56:34;93341.34;;;6.87;100.00
65376;BME280;51976;47.332;9.404;2024-03-22T02:59:00;93334.59;;;6.85;100.00
65376;BME280;51976;47.332;9.404;2024-03-22T03:01:25;93337.56;;;6.83;100.00
65376;BME280;51976;47.332;9.404;2024-03-22T03:03:50;93322.28;;;6.84;100.00
65376;BME280;51976;47.332;9.404;2024-03-22T03:06:16;93326.03;;;6.83;100.00
65376;BME280;51976;47.332;9.404;2024-03-22T03:08:43;93323.03;;;6.79;100.00
65376;BME280;51976;47.332;9.404;2024-03-22T03:11:08;93321.00;;;6.69;100.00
65376;BME280;51976;47.332;9.404;2024-03-22T03:13:34;93332.28;;;6.71;100.00
65376;BME280;51976;47.332;9.404;2024-03-22T03:15:59;93320.59;;;6.61;100.00
65376;BME280;51976;47.332;9.404;2024-03-22T03:18:24;93326.03;;;6.66;100.00
65376;BME280;51976;47.332;9.404;2024-03-22T03:20:50;93326.13;;;6.71;100.00
65376;BME280;51976;47.332;9.404;2024-03-22T03:23:15;93326.84;;;6.66;100.00
65376;BME280;51976;47.332;9.404;2024-03-22T03:25:41;93321.75;;;6.65;100.00
65376;BME280;51976;47.332;9.404;2024-03-22T03:28:06;93318.56;;;6.68;100.00
65376;BME280;51976;47.332;9.404;2024-03-22T03:30:35;93317.44;;;6.64;100.00
65376;BME280;51976;47.332;9.404;2024-03-22T03:33:01;93303.91;;;6.54;100.00
65376;BME280;51976;47.332;9.404;2024-03-22T03:35:26;93305.03;;;6.58;100.00
65376;BME280;51976;47.332;9.404;2024-03-22T03:37:52;93319.03;;;6.26;100.00
65376;BME280;51976;47.332;9.404;2024-03-22T03:40:17;93318.28;;;6.31;100.00
65376;BME280;51976;47.332;9.404;2024-03-22T03:42:43;93316.25;;;6.38;100.00
65376;BME280;51976;47.332;9.404;2024-03-22T03:45:08;93309.91;;;6.44;100.00
65376;BME280;51976;47.332;9.404;2024-03-22T03:47:34;93304.09;;;6.47;100.00
65376;BME280;51976;47.332;9.404;2024-03-22T03:49:59;93308.63;;;6.47;100.00
65376;BME280;51976;47.332;9.404;2024-03-22T03:52:25;93310.00;;;6.32;100.00
65376;BME280;51976;47.332;9.404;2024-03-22T03:54:50;93323.00;;;6.24;100.00
65376;BME280;51976;47.332;9.404;2024-03-22T03:57:15;93317.41;;;6.08;100.00
65376;BME280;51976;47.332;9.404;2024-03-22T03:59:41;93310.59;;;6.18;100.00
65376;BME280;51976;47.332;9.404;2024-03-22T04:02:06;93313.69;;;6.26;100.00
65376;BME280;51976;47.332;9.404;2024-03-22T04:04:31;93308.94;;;6.33;100.00
65376;BME280;51976;47.332;9.404;2024-03-22T04:06:57;93302.72;;;6.28;100.00
65376;BME280;51976;47.332;9.404;2024-03-22T04:09:23;93315.06;;;6.29;100.00
65376;BME280;51976;47.332;9.404;2024-03-22T04:11:48;93307.50;;;6.42;100.00
65376;BME280;51976;47.332;9.404;2024-03-22T04:14:13;93303.28;;;6.47;100.00
65376;BME280;51976;47.332;9.404;2024-03-22T04:16:39;93300.34;;;6.48;100.00
65376;BME280;51976;47.332;9.404;2024-03-22T04:19:04;93298.81;;;6.52;100.00
65376;BME280;51976;47.332;9.404;2024-03-22T04:21:30;93293.13;;;6.49;100.00
65376;BME280;51976;47.332;9.404;2024-03-22T04:23:55;93295.41;;;6.40;100.00
65376;BME280;51976;47.332;9.404;2024-03-22T04:26:20;93297.25;;;6.39;100.00
65376;BME280;51976;47.332;9.404;2024-03-22T04:28:46;93296.94;;;6.53;100.00
65376;BME280;51976;47.332;9.404;2024-03-22T04:31:12;93295.50;;;6.67;100.00
65376;BME280;51976;47.332;9.404;2024-03-22T04:33:38;93294.47;;;6.68;100.00
65376;BME280;51976;47.332;9.404;2024-03-22T04:36:04;93288.28;;;6.67;100.00
65376;BME280;51976;47.332;9.404;2024-03-22T04:38:30;93290.22;;;6.72;100.00
65376;BME280;51976;47.332;9.404;2024-03-22T04:40:56;93283.88;;;6.56;100.00
65376;BME280;51976;47.332;9.404;2024-03-22T04:43:23;93284.47;;;6.63;100.00
65376;BME280;51976;47.332;9.404;2024-03-22T04:45:50;93271.22;;;6.52;100.00
65376;BME280;51976;47.332;9.404;2024-03-22T04:48:20;93279.38;;;6.62;100.00
65376;BME280;51976;47.332;9.404;2024-03-22T04:50:46;93285.72;;;6.56;100.00
65376;BME280;51976;47.332;9.404;2024-03-22T04:53:13;93291.25;;;6.32;100.00
65376;BME280;51976;47.332;9.404;2024-03-22T04:55:38;93284.59;;;6.52;100.00
65376;BME280;51976;47.332;9.404;2024-03-22T04:58:10;93281.78;;;6.63;100.00
65376;BME280;51976;47.332;9.404;2024-03-22T05:00:35;93282.69;;;6.69;100.00
65376;BME280;51976;47.332;9.404;2024-03-22T05:03:01;93280.81;;;6.69;100.00
65376;BME280;51976;47.332;9.404;2024-03-22T05:05:26;93283.81;;;6.73;100.00
65376;BME280;51976;47.332;9.404;2024-03-22T05:07:51;93270.16;;;6.74;100.00
65376;BME280;51976;47.332;9.404;2024-03-22T05:10:17;93276.91;;;6.77;100.00
65376;BME280;51976;47.332;9.404;2024-03-22T05:12:42;93277.72;;;6.77;100.00
65376;BME280;51976;47.332;9.404;2024-03-22T05:15:08;93276.66;;;6.78;100.00
65376;BME280;51976;47.332;9.404;2024-03-22T05:17:33;93276.34;;;6.75;100.00
65376;BME280;51976;47.332;9.404;2024-03-22T05:19:59;93262.22;;;6.63;100.00
65376;BME280;51976;47.332;9.404;2024-03-22T05:22:24;93268.56;;;6.57;100.00
65376;BME280;51976;47.332;9.404;2024-03-22T05:24:50;93250.06;;;6.17;100.00
65376;BME280;51976;47.332;9.404;2024-03-22T05:27:17;93263.22;;;6.57;100.00
65376;BME280;51976;47.332;9.404;2024-03-22T05:29:42;93261.06;;;6.75;100.00
65376;BME280;51976;47.332;9.404;2024-03-22T05:32:07;93259.03;;;6.83;100.00
65376;BME280;51976;47.332;9.404;2024-03-22T05:34:33;93253.16;;;6.86;100.00
65376;BME280;51976;47.332;9.404;2024-03-22T05:36:58;93254.78;;;6.87;100.00
65376;BME280;51976;47.332;9.404;2024-03-22T05:39:24;93247.50;;;6.82;100.00
65376;BME280;51976;47.332;9.404;2024-03-22T05:41:49;93249.06;;;6.78;100.00
65376;BME280;51976;47.332;9.404;2024-03-22T05:44:15;93243.44;;;6.79;100.00
65376;BME280;51976;47.332;9.404;2024-03-22T05:46:40;93256.59;;;6.81;100.00
65376;BME280;51976;47.332;9.404;2024-03-22T05:49:05;93246.16;;;6.63;100.00
65376;BME280;51976;47.332;9.404;2024-03-22T05:51:31;93242.66;;;6.62;100.00
65376;BME280;51976;47.332;9.404;2024-03-22T05:53:57;93247.38;;;6.72;100.00
65376;BME280;51976;47.332;9.404;2024-03-22T05:56:22;93243.81;;;6.66;100.00
65376;BME280;51976;47.332;9.404;2024-03-22T05:58:48;93243.94;;;6.76;100.00
65376;BME280;51976;47.332;9.404;2024-03-22T06:01:13;93245.09;;;6.64;100.00
65376;BME280;51976;47.332;9.404;2024-03-22T06:03:39;93242.00;;;6.72;100.00
65376;BME280;51976;47.332;9.404;2024-03-22T06:06:04;93235.72;;;6.83;100.00
65376;BME280;51976;47.332;9.404;2024-03-22T06:08:30;93250.72;;;6.84;100.00
65376;BME280;51976;47.332;9.404;2024-03-22T06:10:59;93238.19;;;6.90;100.00
65376;BME280;51976;47.332;9.404;2024-03-22T06:13:24;93243.88;;;6.93;100.00
65376;BME280;51976;47.332;9.404;2024-03-22T06:15:50;93231.53;;;6.92;100.00
65376;BME280;51976;47.332;9.404;2024-03-22T06:18:16;93241.00;;;6.78;100.00
65376;BME280;51976;47.332;9.404;2024-03-22T06:20:42;93239.81;;;6.91;100.00
65376;BME280;51976;47.332;9.404;2024-03-22T06:23:09;93235.47;;;7.06;100.00
65376;BME280;51976;47.332;9.404;2024-03-22T06:25:34;93226.78;;;6.99;100.00
65376;BME280;51976;47.332;9.404;2024-03-22T06:28:00;93233.38;;;7.13;100.00
65376;BME280;51976;47.332;9.404;2024-03-22T06:30:25;93235.56;;;7.17;100.00
65376;BME280;51976;47.332;9.404;2024-03-22T06:32:50;93229.00;;;7.29;100.00
65376;BME280;51976;47.332;9.404;2024-03-22T06:35:16;93227.44;;;7.33;100.00
65376;BME280;51976;47.332;9.404;2024-03-22T06:37:41;93237.41;;;7.38;100.00
65376;BME280;51976;47.332;9.404;2024-03-22T06:40:07;93234.81;;;7.48;100.00
65376;BME280;51976;47.332;9.404;2024-03-22T06:42:33;93222.81;;;7.56;100.00
65376;BME280;51976;47.332;9.404;2024-03-22T06:44:58;93219.69;;;7.69;100.00
65376;BME280;51976;47.332;9.404;2024-03-22T06:47:24;93223.28;;;7.79;100.00
65376;BME280;51976;47.332;9.404;2024-03-22T06:49:49;93221.78;;;7.89;100.00
65376;BME280;51976;47.332;9.404;2024-03-22T06:52:15;93229.63;;;8.00;100.00
65376;BME280;51976;47.332;9.404;2024-03-22T06:54:41;93227.44;;;7.97;100.00
65376;BME280;51976;47.332;9.404;2024-03-22T06:57:06;93214.94;;;8.08;100.00
65376;BME280;51976;47.332;9.404;2024-03-22T06:59:32;93211.06;;;8.31;100.00
65376;BME280;51976;47.332;9.404;2024-03-22T07:01:57;93209.56;;;8.50;100.00
65376;BME280;51976;47.332;9.404;2024-03-22T07:04:23;93209.31;;;8.52;100.00
65376;BME280;51976;47.332;9.404;2024-03-22T07:06:48;93201.91;;;8.69;100.00
65376;BME280;51976;47.332;9.404;2024-03-22T07:09:13;93201.44;;;8.87;100.00
65376;BME280;51976;47.332;9.404;2024-03-22T07:11:39;93203.06;;;8.93;100.00
65376;BME280;51976;47.332;9.404;2024-03-22T07:14:05;93203.13;;;9.13;100.00
65376;BME280;51976;47.332;9.404;2024-03-22T07:16:32;93196.19;;;9.23;100.00
65376;BME280;51976;47.332;9.404;2024-03-22T07:18:58;93191.13;;;9.52;100.00
65376;BME280;51976;47.332;9.404;2024-03-22T07:21:23;93188.44;;;9.92;100.00
65376;BME280;51976;47.332;9.404;2024-03-22T07:23:49;93185.47;;;10.14;100.00
65376;BME280;51976;47.332;9.404;2024-03-22T07:26:14;93181.47;;;10.27;100.00
65376;BME280;51976;47.332;9.404;2024-03-22T07:28:40;93178.16;;;10.60;100.00
65376;BME280;51976;47.332;9.404;2024-03-22T07:31:06;93169.00;;;10.56;100.00
65376;BME280;51976;47.332;9.404;2024-03-22T07:33:32;93169.28;;;10.49;100.00
65376;BME280;51976;47.332;9.404;2024-03-22T07:36:02;93158.66;;;10.89;100.00
65376;BME280;51976;47.332;9.404;2024-03-22T07:38:28;93159.88;;;11.16;100.00
65376;BME280;51976;47.332;9.404;2024-03-22T07:40:53;93157.63;;;11.29;100.00
65376;BME280;51976;47.332;9.404;2024-03-22T07:43:19;93157.19;;;11.56;100.00
65376;BME280;51976;47.332;9.404;2024-03-22T07:45:46;93155.13;;;11.86;100.00
65376;BME280;51976;47.332;9.404;2024-03-22T07:48:11;93147.00;;;12.20;100.00
65376;BME280;51976;47.332;9.404;2024-03-22T07:50:38;93151.72;;;12.34;100.00
65376;BME280;51976;47.332;9.404;2024-03-22T07:53:03;93147.41;;;12.33;100.00
65376;BME280;51976;47.332;9.404;2024-03-22T07:55:29;93139.44;;;12.46;100.00
65376;BME280;51976;47.332;9.404;2024-03-22T07:57:55;93144.16;;;12.60;100.00
65376;BME280;51976;47.332;9.404;2024-03-22T08:00:23;93145.88;;;12.98;100.00
65376;BME280;51976;47.332;9.404;2024-03-22T08:02:51;93134.75;;;13.24;100.00
65376;BME280;51976;47.332;9.404;2024-03-22T08:05:17;93128.69;;;13.32;100.00
65376;BME280;51976;47.332;9.404;2024-03-22T08:07:42;93133.09;;;13.46;100.00
65376;BME280;51976;47.332;9.404;2024-03-22T08:10:10;93131.50;;;13.64;100.00
65376;BME280;51976;47.332;9.404;2024-03-22T08:12:35;93133.66;;;13.81;100.00
65376;BME280;51976;47.332;9.404;2024-03-22T08:15:01;93140.38;;;14.02;100.00
65376;BME280;51976;47.332;9.404;2024-03-22T08:17:27;93134.94;;;14.21;100.00
65376;BME280;51976;47.332;9.404;2024-03-22T08:19:52;93116.47;;;14.37;100.00
65376;BME280;51976;47.332;9.404;2024-03-22T08:22:18;93129.19;;;14.55;100.00
65376;BME280;51976;47.332;9.404;2024-03-22T08:24:43;93120.16;;;14.60;100.00
65376;BME280;51976;47.332;9.404;2024-03-22T08:27:09;93126.19;;;14.84;100.00
65376;BME280;51976;47.332;9.404;2024-03-22T08:29:34;93110.63;;;15.03;100.00
65376;BME280;51976;47.332;9.404;2024-03-22T08:32:00;93112.09;;;15.09;100.00
65376;BME280;51976;47.332;9.404;2024-03-22T08:34:32;93118.53;;;15.13;100.00
65376;BME280;51976;47.332;9.404;2024-03-22T08:36:58;93114.47;;;15.38;100.00
65376;BME280;51976;47.332;9.404;2024-03-22T08:39:23;93109.31;;;15.50;100.00
65376;BME280;51976;47.332;9.404;2024-03-22T08:41:51;93115.38;;;15.47;100.00
65376;BME280;51976;47.332;9.404;2024-03-22T08:44:16;93112.03;;;15.64;100.00
65376;BME280;51976;47.332;9.404;2024-03-22T08:46:42;93114.63;;;14.92;100.00
65376;BME280;51976;47.332;9.404;2024-03-22T08:49:07;93105.19;;;15.03;100.00
65376;BME280;51976;47.332;9.404;2024-03-22T08:51:33;93102.66;;;15.20;100.00
65376;BME280;51976;47.332;9.404;2024-03-22T08:53:58;93112.00;;;15.28;100.00
65376;BME280;51976;47.332;9.404;2024-03-22T08:56:24;93096.53;;;15.51;100.00
65376;BME280;51976;47.332;9.404;2024-03-22T08:58:49;93101.31;;;15.81;100.00
65376;BME280;51976;47.332;9.404;2024-03-22T09:01:15;93097.00;;;15.31;100.00
65376;BME280;51976;47.332;9.404;2024-03-22T09:03:41;93095.56;;;15.83;100.00
65376;BME280;51976;47.332;9.404;2024-03-22T09:06:06;93098.56;;;15.59;100.00
65376;BME280;51976;47.332;9.404;2024-03-22T09:08:32;93092.63;;;14.94;100.00
65376;BME280;51976;47.332;9.404;2024-03-22T09:10:58;93090.00;;;14.61;100.00
65376;BME280;51976;47.332;9.404;2024-03-22T09:13:24;93083.78;;;14.74;100.00
65376;BME280;51976;47.332;9.404;2024-03-22T09:15:58;93082.97;;;14.74;100.00
65376;BME280;51976;47.332;9.404;2024-03-22T09:18:25;93090.63;;;14.72;100.00
65376;BME280;51976;47.332;9.404;2024-03-22T09:20:52;93082.84;;;14.79;100.00
65376;BME280;51976;47.332;9.404;2024-03-22T09:23:18;93084.78;;;14.65;100.00
65376;BME280;51976;47.332;9.404;2024-03-22T09:25:43;93096.16;;;14.20;100.00
65376;BME280;51976;47.332;9.404;2024-03-22T09:28:09;93092.53;;;14.25;100.00
65376;BME280;51976;47.332;9.404;2024-03-22T09:30:38;93086.34;;;14.38;100.00
65376;BME280;51976;47.332;9.404;2024-03-22T09:33:04;93077.72;;;14.77;100.00
65376;BME280;51976;47.332;9.404;2024-03-22T09:35:31;93075.72;;;14.83;100.00
65376;BME280;51976;47.332;9.404;2024-03-22T09:37:57;93078.72;;;14.54;100.00
65376;BME280;51976;47.332;9.404;2024-03-22T09:40:23;93077.41;;;14.38;100.00
65376;BME280;51976;47.332;9.404;2024-03-22T09:42:49;93068.25;;;14.20;100.00
65376;BME280;51976;47.332;9.404;2024-03-22T09:45:18;93064.00;;;14.14;100.00
65376;BME280;51976;47.332;9.404;2024-03-22T09:47:45;93058.13;;;14.39;100.00
65376;BME280;51976;47.332;9.404;2024-03-22T09:50:13;93051.53;;;14.45;100.00
65376;BME280;51976;47.332;9.404;2024-03-22T09:52:41;93057.63;;;14.51;100.00
65376;BME280;51976;47.332;9.404;2024-03-22T09:55:08;93054.94;;;14.65;100.00
65376;BME280;51976;47.332;9.404;2024-03-22T09:57:52;93048.00;;;14.59;100.00
65376;BME280;51976;47.332;9.404;2024-03-22T10:00:21;93039.38;;;14.43;100.00
65376;BME280;51976;47.332;9.404;2024-03-22T10:02:51;93045.78;;;14.61;100.00
65376;BME280;51976;47.332;9.404;2024-03-22T10:05:17;93047.88;;;14.77;100.00
65376;BME280;51976;47.332;9.404;2024-03-22T10:07:44;93037.94;;;14.86;100.00
65376;BME280;51976;47.332;9.404;2024-03-22T10:10:09;93037.41;;;14.98;100.00
65376;BME280;51976;47.332;9.404;2024-03-22T10:12:39;93037.06;;;15.13;100.00
65376;BME280;51976;47.332;9.404;2024-03-22T10:15:06;93045.63;;;15.07;100.00
65376;BME280;51976;47.332;9.404;2024-03-22T10:17:39;93037.53;;;14.93;100.00
65376;BME280;51976;47.332;9.404;2024-03-22T10:20:06;93039.69;;;15.05;100.00
65376;BME280;51976;47.332;9.404;2024-03-22T10:22:43;93030.72;;;15.32;100.00
65376;BME280;51976;47.332;9.404;2024-03-22T10:25:11;93030.50;;;15.28;100.00
65376;BME280;51976;47.332;9.404;2024-03-22T10:27:40;93030.56;;;15.37;100.00
65376;BME280;51976;47.332;9.404;2024-03-22T10:30:09;93023.22;;;15.37;100.00
65376;BME280;51976;47.332;9.404;2024-03-22T10:32:36;93028.28;;;15.66;100.00
65376;BME280;51976;47.332;9.404;2024-03-22T10:35:03;93018.66;;;15.24;100.00
65376;BME280;51976;47.332;9.404;2024-03-22T10:37:32;93019.50;;;15.33;100.00
65376;BME280;51976;47.332;9.404;2024-03-22T10:40:01;93007.81;;;15.46;100.00
65376;BME280;51976;47.332;9.404;2024-03-22T10:42:35;93019.00;;;16.12;100.00
65376;BME280;51976;47.332;9.404;2024-03-22T10:45:02;93005.03;;;16.44;97.19
65376;BME280;51976;47.332;9.404;2024-03-22T10:47:30;93012.50;;;16.70;90.73
65376;BME280;51976;47.332;9.404;2024-03-22T10:50:09;93002.31;;;16.84;89.93
65376;BME280;51976;47.332;9.404;2024-03-22T10:52:42;93009.44;;;16.23;88.23
65376;BME280;51976;47.332;9.404;2024-03-22T10:55:16;93002.81;;;16.46;89.53
65376;BME280;51976;47.332;9.404;2024-03-22T10:57:46;93000.94;;;16.55;84.74
65376;BME280;51976;47.332;9.404;2024-03-22T11:00:12;93000.91;;;16.16;76.61
65376;BME280;51976;47.332;9.404;2024-03-22T11:02:43;92985.25;;;16.13;81.35
65376;BME280;51976;47.332;9.404;2024-03-22T11:05:16;92981.47;;;16.00;85.25
65376;BME280;51976;47.332;9.404;2024-03-22T11:07:44;92990.28;;;15.75;88.27
65376;BME280;51976;47.332;9.404;2024-03-22T11:10:11;92989.47;;;15.97;78.48
65376;BME280;51976;47.332;9.404;2024-03-22T11:12:38;92986.69;;;16.19;75.54
65376;BME280;51976;47.332;9.404;2024-03-22T11:15:04;92979.38;;;15.97;78.29
65376;BME280;51976;47.332;9.404;2024-03-22T11:17:30;92974.97;;;15.79;78.73
65376;BME280;51976;47.332;9.404;2024-03-22T11:19:55;92969.44;;;15.93;83.06
65376;BME280;51976;47.332;9.404;2024-03-22T11:22:21;92977.88;;;15.82;75.52
65376;BME280;51976;47.332;9.404;2024-03-22T11:24:46;92965.78;;;16.28;74.95
65376;BME280;51976;47.332;9.404;2024-03-22T11:27:12;92968.97;;;16.70;76.43
65376;BME280;51976;47.332;9.404;2024-03-22T11:29:37;92970.22;;;16.24;72.11
65376;BME280;51976;47.332;9.404;2024-03-22T11:32:09;92965.34;;;16.43;77.01
65376;BME280;51976;47.332;9.404;2024-03-22T11:34:36;92963.06;;;16.28;76.54
65376;BME280;51976;47.332;9.404;2024-03-22T11:37:01;92950.22;;;16.20;78.15
65376;BME280;51976;47.332;9.404;2024-03-22T11:39:27;92954.84;;;16.11;80.95
65376;BME280;51976;47.332;9.404;2024-03-22T11:41:52;92950.41;;;15.93;78.86
65376;BME280;51976;47.332;9.404;2024-03-22T11:44:18;92953.06;;;16.15;82.78
65376;BME280;51976;47.332;9.404;2024-03-22T11:46:44;92942.47;;;15.74;80.48
65376;BME280;51976;47.332;9.404;2024-03-22T11:49:11;92935.50;;;15.81;78.03
65376;BME280;51976;47.332;9.404;2024-03-22T11:51:36;92948.53;;;15.71;78.39
65376;BME280;51976;47.332;9.404;2024-03-22T11:54:05;92941.63;;;15.96;78.94
65376;BME280;51976;47.332;9.404;2024-03-22T11:56:34;92930.66;;;16.09;79.69
65376;BME280;51976;47.332;9.404;2024-03-22T11:59:01;92931.59;;;16.05;78.30
65376;BME280;51976;47.332;9.404;2024-03-22T12:01:28;92923.31;;;16.10;83.21
65376;BME280;51976;47.332;9.404;2024-03-22T12:03:53;92916.00;;;16.67;81.78
65376;BME280;51976;47.332;9.404;2024-03-22T12:06:20;92913.91;;;17.24;75.98
65376;BME280;51976;47.332;9.404;2024-03-22T12:08:46;92908.78;;;17.32;73.28
65376;BME280;51976;47.332;9.404;2024-03-22T12:11:13;92897.50;;;16.47;77.85
65376;BME280;51976;47.332;9.404;2024-03-22T12:13:39;92907.75;;;16.50;81.78
65376;BME280;51976;47.332;9.404;2024-03-22T12:16:05;92901.44;;;16.89;85.23
65376;BME280;51976;47.332;9.404;2024-03-22T12:18:31;92906.34;;;16.70;79.58
65376;BME280;51976;47.332;9.404;2024-03-22T12:20:56;92901.00;;;16.47;79.24
65376;BME280;51976;47.332;9.404;2024-03-22T12:23:22;92887.91;;;16.49;83.21
65376;BME280;51976;47.332;9.404;2024-03-22T12:25:50;92893.78;;;16.34;82.79
65376;BME280;51976;47.332;9.404;2024-03-22T12:28:16;92886.88;;;16.28;83.40
65376;BME280;51976;47.332;9.404;2024-03-22T12:30:42;92884.75;;;16.65;82.71
65376;BME280;51976;47.332;9.404;2024-03-22T12:33:08;92880.63;;;16.93;80.66
65376;BME280;51976;47.332;9.404;2024-03-22T12:35:36;92873.53;;;17.26;81.55
65376;BME280;51976;47.332;9.404;2024-03-22T12:38:02;92868.72;;;17.41;80.60
65376;BME280;51976;47.332;9.404;2024-03-22T12:40:29;92876.09;;;17.49;78.34
65376;BME280;51976;47.332;9.404;2024-03-22T12:42:56;92864.44;;;16.79;82.59
65376;BME280;51976;47.332;9.404;2024-03-22T12:45:21;92856.75;;;16.64;84.28
65376;BME280;51976;47.332;9.404;2024-03-22T12:47:47;92846.78;;;17.03;81.98
65376;BME280;51976;47.332;9.404;2024-03-22T12:50:13;92848.91;;;16.80;82.15
65376;BME280;51976;47.332;9.404;2024-03-22T12:52:39;92834.78;;;16.61;85.94